createdAt,value
2023-06-21T00:00:25.920Z,18.60
2023-06-21T00:03:14.519Z,18.30
2023-06-21T00:05:43.090Z,20.90
2023-06-21T00:08:13.066Z,21.80
2023-06-21T00:10:40.916Z,18.00
2023-06-21T00:13:09.701Z,19.50
2023-06-21T00:15:38.022Z,19.80
2023-06-21T00:18:05.990Z,20.20
2023-06-21T00:20:33.959Z,22.90
2023-06-21T00:23:01.874Z,21.00
2023-06-21T00:25:29.613Z,19.60
2023-06-21T00:27:57.518Z,18.90
2023-06-21T00:30:25.485Z,19.60
2023-06-21T00:32:53.533Z,19.90
2023-06-21T00:35:21.801Z,18.50
2023-06-21T00:37:49.653Z,18.10
2023-06-21T00:40:17.748Z,18.60
2023-06-21T00:42:45.482Z,19.50
2023-06-21T00:45:16.800Z,18.60
2023-06-21T00:47:47.277Z,18.40
2023-06-21T00:50:17.234Z,17.30
2023-06-21T00:52:45.166Z,18.20
2023-06-21T00:55:16.476Z,19.30
2023-06-21T00:57:45.511Z,19.30
2023-06-21T01:00:21.652Z,23.20
2023-06-21T01:02:54.146Z,21.90
2023-06-21T01:05:23.526Z,19.90
2023-06-21T01:08:01.578Z,20.50
2023-06-21T01:10:53.110Z,18.40
2023-06-21T01:13:27.874Z,18.10
2023-06-21T01:15:58.620Z,21.00
2023-06-21T01:18:27.509Z,22.20
2023-06-21T01:20:58.340Z,18.00
2023-06-21T01:23:48.206Z,17.30
2023-06-21T01:26:15.926Z,20.00
2023-06-21T01:29:03.290Z,25.60
2023-06-21T01:31:31.518Z,19.60
2023-06-21T01:34:00.123Z,20.90
2023-06-21T01:36:28.141Z,18.70
2023-06-21T01:38:57.194Z,17.50
2023-06-21T01:41:29.978Z,15.60
2023-06-21T01:43:58.413Z,18.10
2023-06-21T01:46:27.666Z,21.00
2023-06-21T01:48:56.176Z,18.10
2023-06-21T01:51:24.416Z,15.90
2023-06-21T01:53:52.581Z,23.50
2023-06-21T01:56:20.901Z,18.90
2023-06-21T01:58:50.026Z,17.50
2023-06-21T02:01:19.905Z,17.90
2023-06-21T02:03:55.808Z,17.10
2023-06-21T02:06:27.768Z,15.00
2023-06-21T02:08:55.731Z,15.90
2023-06-21T02:11:23.678Z,14.00
2023-06-21T02:13:53.401Z,18.50
2023-06-21T02:16:28.309Z,15.20
2023-06-21T02:18:56.384Z,13.20
2023-06-21T02:21:24.299Z,14.30
2023-06-21T02:23:52.136Z,13.10
2023-06-21T02:26:20.107Z,17.60
2023-06-21T02:28:48.002Z,13.60
2023-06-21T02:31:15.906Z,14.60
2023-06-21T02:33:46.105Z,12.20
2023-06-21T02:36:14.915Z,15.40
2023-06-21T02:38:42.896Z,11.30
2023-06-21T02:41:10.720Z,13.40
2023-06-21T02:43:38.791Z,13.60
2023-06-21T02:46:07.077Z,12.90
2023-06-21T02:48:37.814Z,16.60
2023-06-21T02:51:05.914Z,12.60
2023-06-21T02:53:41.259Z,11.90
2023-06-21T02:56:09.126Z,11.90
2023-06-21T02:58:36.939Z,12.70
2023-06-21T03:01:04.836Z,16.40
2023-06-21T03:03:32.761Z,14.10
2023-06-21T03:06:00.645Z,17.10
2023-06-21T03:08:28.518Z,15.80
2023-06-21T03:10:56.410Z,17.20
2023-06-21T03:13:24.473Z,17.90
2023-06-21T03:15:52.268Z,15.30
2023-06-21T03:18:20.124Z,16.50
2023-06-21T03:20:51.125Z,14.20
2023-06-21T03:23:18.957Z,11.30
2023-06-21T03:25:46.719Z,12.30
2023-06-21T03:28:14.484Z,17.50
2023-06-21T03:30:42.267Z,11.60
2023-06-21T03:33:10.872Z,15.10
2023-06-21T03:35:38.695Z,12.70
2023-06-21T03:38:08.572Z,12.50
2023-06-21T03:40:36.384Z,12.30
2023-06-21T03:43:04.221Z,16.90
2023-06-21T03:45:31.987Z,12.90
2023-06-21T03:48:03.524Z,16.60
2023-06-21T03:50:31.428Z,13.80
2023-06-21T03:52:59.429Z,14.20
2023-06-21T03:55:27.308Z,17.20
2023-06-21T03:57:55.112Z,13.50
2023-06-21T04:00:22.864Z,15.20
2023-06-21T04:02:50.815Z,16.40
2023-06-21T04:05:18.928Z,13.40
2023-06-21T04:07:47.797Z,12.50
2023-06-21T04:10:16.001Z,13.30
2023-06-21T04:12:43.993Z,14.00
2023-06-21T04:15:12.719Z,15.80
2023-06-21T04:17:40.609Z,12.10
2023-06-21T04:20:14.794Z,16.60
2023-06-21T04:22:43.097Z,16.00
2023-06-21T04:25:13.773Z,14.00
2023-06-21T04:27:49.613Z,18.50
2023-06-21T04:30:19.326Z,12.20
2023-06-21T04:32:47.988Z,12.70
2023-06-21T04:35:17.596Z,10.30
2023-06-21T04:37:49.314Z,13.60
2023-06-21T04:40:20.222Z,12.50
2023-06-21T04:42:59.170Z,10.90
2023-06-21T04:45:27.528Z,12.20
2023-06-21T04:47:59.488Z,10.90
2023-06-21T04:50:28.077Z,12.90
2023-06-21T04:53:00.423Z,10.40
2023-06-21T04:55:29.435Z,12.70
2023-06-21T04:57:59.848Z,12.10
2023-06-21T05:00:28.383Z,20.60
2023-06-21T05:02:56.921Z,22.40
2023-06-21T05:05:25.049Z,17.40
2023-06-21T05:07:53.038Z,20.00
2023-06-21T05:10:20.995Z,16.10
2023-06-21T05:12:48.790Z,18.90
2023-06-21T05:15:23.994Z,17.70
2023-06-21T05:17:51.873Z,14.80
2023-06-21T05:20:20.988Z,16.60
2023-06-21T05:22:50.018Z,16.30
2023-06-21T05:25:17.971Z,20.10
2023-06-21T05:27:45.827Z,16.20
2023-06-21T05:30:13.729Z,18.30
2023-06-21T05:32:41.562Z,14.10
2023-06-21T05:35:09.582Z,11.30
2023-06-21T05:37:38.020Z,14.10
2023-06-21T05:40:09.409Z,10.40
2023-06-21T05:42:37.116Z,16.10
2023-06-21T05:45:06.509Z,10.50
2023-06-21T05:47:34.533Z,10.30
2023-06-21T05:50:02.300Z,9.80
2023-06-21T05:52:30.555Z,9.50
2023-06-21T05:54:58.407Z,12.80
2023-06-21T05:57:27.813Z,10.50
2023-06-21T05:59:57.170Z,10.90
2023-06-21T06:02:25.140Z,11.80
2023-06-21T06:04:54.262Z,16.10
2023-06-21T06:07:25.134Z,13.20
2023-06-21T06:09:53.026Z,10.20
2023-06-21T06:12:23.390Z,10.00
2023-06-21T06:14:51.640Z,10.10
2023-06-21T06:17:19.548Z,10.20
2023-06-21T06:19:47.498Z,16.00
2023-06-21T06:22:15.432Z,12.60
2023-06-21T06:24:43.694Z,13.40
2023-06-21T06:27:11.660Z,15.20
2023-06-21T06:29:39.570Z,15.30
2023-06-21T06:32:07.366Z,18.00
2023-06-21T06:34:35.530Z,15.10
2023-06-21T06:37:13.679Z,12.40
2023-06-21T06:39:43.532Z,15.70
2023-06-21T06:42:11.703Z,14.30
2023-06-21T06:44:39.822Z,18.40
2023-06-21T06:47:08.450Z,16.30
2023-06-21T06:49:36.306Z,20.10
2023-06-21T06:52:04.259Z,20.30
2023-06-21T06:54:32.244Z,19.20
2023-06-21T06:57:00.223Z,17.00
2023-06-21T06:59:30.076Z,19.60
2023-06-21T07:01:58.543Z,19.10
2023-06-21T07:04:27.306Z,18.20
2023-06-21T07:06:55.609Z,16.90
2023-06-21T07:09:23.464Z,20.30
2023-06-21T07:11:51.257Z,21.50
2023-06-21T07:14:19.171Z,22.80
2023-06-21T07:16:50.077Z,21.10
2023-06-21T07:19:18.258Z,21.30
2023-06-21T07:21:46.095Z,22.30
2023-06-21T07:24:13.936Z,25.10
2023-06-21T07:26:41.905Z,22.40
2023-06-21T07:29:09.751Z,26.70
2023-06-21T07:31:40.964Z,23.50
2023-06-21T07:34:10.937Z,21.70
2023-06-21T07:36:41.822Z,23.30
2023-06-21T07:39:10.197Z,22.90
2023-06-21T07:41:38.276Z,24.30
2023-06-21T07:44:06.240Z,19.30
2023-06-21T07:46:34.201Z,25.40
2023-06-21T07:49:02.098Z,22.90
2023-06-21T07:51:30.029Z,23.10
2023-06-21T07:53:57.998Z,21.60
2023-06-21T07:56:26.014Z,23.00
2023-06-21T07:58:54.089Z,23.10
2023-06-21T08:01:22.247Z,24.30
2023-06-21T08:03:50.131Z,24.80
2023-06-21T08:06:20.333Z,24.70
2023-06-21T08:08:48.229Z,23.20
2023-06-21T08:11:16.296Z,22.00
2023-06-21T08:13:44.271Z,24.10
2023-06-21T08:16:12.194Z,22.60
2023-06-21T08:18:39.985Z,24.10
2023-06-21T08:21:09.427Z,21.40
2023-06-21T08:23:37.228Z,19.60
2023-06-21T08:26:05.167Z,20.80
2023-06-21T08:28:32.961Z,25.80
2023-06-21T08:31:00.910Z,22.30
2023-06-21T08:33:28.781Z,23.50
2023-06-21T08:35:56.587Z,18.80
2023-06-21T08:38:28.415Z,21.20
2023-06-21T08:40:59.333Z,18.90
2023-06-21T08:43:28.155Z,20.20
2023-06-21T08:45:56.330Z,22.80
2023-06-21T08:48:24.552Z,29.60
2023-06-21T08:50:52.384Z,23.80
2023-06-21T08:53:49.579Z,24.10
2023-06-21T08:56:19.855Z,19.30
2023-06-21T08:58:50.756Z,24.00
2023-06-21T09:01:20.527Z,21.20
2023-06-21T09:04:04.328Z,19.00
2023-06-21T09:06:32.389Z,21.80
2023-06-21T09:09:00.690Z,23.40
2023-06-21T09:11:29.097Z,25.60
2023-06-21T09:13:57.131Z,22.30
2023-06-21T09:16:25.298Z,20.10
2023-06-21T09:18:53.355Z,23.10
2023-06-21T09:21:21.413Z,19.00
2023-06-21T09:23:49.494Z,21.40
2023-06-21T09:26:17.399Z,19.50
2023-06-21T09:28:45.466Z,20.70
2023-06-21T09:31:14.858Z,24.70
2023-06-21T09:33:49.097Z,20.30
2023-06-21T09:36:17.683Z,20.10
2023-06-21T09:38:45.777Z,22.00
2023-06-21T09:41:13.783Z,18.70
2023-06-21T09:43:43.810Z,18.20
2023-06-21T09:46:13.537Z,25.10
2023-06-21T09:48:42.238Z,22.30
2023-06-21T09:51:12.168Z,18.80
2023-06-21T09:53:44.521Z,19.40
2023-06-21T09:56:21.119Z,16.80
2023-06-21T09:58:51.577Z,20.50
2023-06-21T10:01:20.043Z,17.40
2023-06-21T10:03:48.578Z,18.50
2023-06-21T10:06:19.331Z,15.40
2023-06-21T10:08:53.286Z,16.90
2023-06-21T10:11:21.409Z,16.20
2023-06-21T10:13:49.500Z,16.30
2023-06-21T10:16:19.985Z,15.90
2023-06-21T10:18:48.771Z,15.00
2023-06-21T10:21:16.863Z,14.90
2023-06-21T10:23:46.739Z,20.70
2023-06-21T10:26:16.190Z,13.60
2023-06-21T10:28:46.388Z,16.00
2023-06-21T10:31:14.547Z,17.80
2023-06-21T10:33:44.813Z,16.20
2023-06-21T10:36:14.120Z,14.20
2023-06-21T10:38:47.493Z,15.10
2023-06-21T10:41:16.106Z,13.30
2023-06-21T10:43:44.756Z,14.70
2023-06-21T10:46:13.165Z,15.10
2023-06-21T10:48:41.184Z,14.70
2023-06-21T10:51:09.191Z,13.70
2023-06-21T10:53:37.454Z,12.50
2023-06-21T10:56:06.847Z,13.50
2023-06-21T10:58:34.840Z,9.80
2023-06-21T11:01:02.895Z,11.30
2023-06-21T11:03:30.936Z,11.70
2023-06-21T11:06:36.849Z,12.00
2023-06-21T11:09:11.749Z,12.80
2023-06-21T11:11:41.717Z,12.00
2023-06-21T11:14:10.006Z,11.40
2023-06-21T11:16:40.374Z,14.80
2023-06-21T11:19:09.701Z,10.40
2023-06-21T11:21:47.600Z,13.70
2023-06-21T11:24:18.942Z,12.60
2023-06-21T11:26:53.433Z,14.10
2023-06-21T11:29:22.017Z,13.50
2023-06-21T11:31:50.008Z,14.60
2023-06-21T11:34:24.719Z,13.40
2023-06-21T11:36:52.738Z,10.90
2023-06-21T11:39:20.605Z,9.70
2023-06-21T11:41:48.717Z,15.30
2023-06-21T11:44:24.971Z,13.90
2023-06-21T11:47:03.270Z,11.50
2023-06-21T11:49:34.727Z,13.50
2023-06-21T11:52:04.292Z,15.40
2023-06-21T11:54:36.784Z,11.90
2023-06-21T11:57:06.629Z,12.30
2023-06-21T11:59:35.271Z,19.30
2023-06-21T12:02:11.166Z,16.50
2023-06-21T12:04:39.998Z,14.10
2023-06-21T12:07:08.432Z,10.50
2023-06-21T12:09:37.305Z,13.00
2023-06-21T12:12:08.596Z,10.10
2023-06-21T12:14:37.691Z,11.40
2023-06-21T12:17:06.281Z,10.70
2023-06-21T12:19:37.418Z,18.40
2023-06-21T12:22:05.286Z,11.00
2023-06-21T12:24:36.655Z,11.10
2023-06-21T12:27:04.988Z,15.60
2023-06-21T12:29:33.571Z,17.60
2023-06-21T12:32:04.327Z,8.90
2023-06-21T12:34:33.089Z,15.70
2023-06-21T12:37:00.959Z,10.10
2023-06-21T12:39:28.835Z,12.70
2023-06-21T12:42:00.064Z,12.60
2023-06-21T12:44:28.063Z,19.30
2023-06-21T12:46:57.863Z,12.80
2023-06-21T12:49:27.755Z,11.10
2023-06-21T12:51:55.557Z,11.70
2023-06-21T12:54:23.421Z,9.30
2023-06-21T12:56:54.281Z,10.30
2023-06-21T12:59:22.186Z,11.20
2023-06-21T13:01:49.999Z,11.00
2023-06-21T13:04:19.241Z,11.20
2023-06-21T13:06:47.492Z,9.50
2023-06-21T13:09:15.583Z,11.10
2023-06-21T13:11:43.549Z,14.00
2023-06-21T13:14:11.472Z,11.00
2023-06-21T13:16:39.394Z,11.10
2023-06-21T13:19:08.499Z,14.00
2023-06-21T13:21:38.299Z,12.50
2023-06-21T13:24:06.440Z,15.40
2023-06-21T13:26:34.243Z,14.70
2023-06-21T13:29:02.280Z,12.10
2023-06-21T13:31:30.198Z,10.20
2023-06-21T13:33:58.008Z,10.40
2023-06-21T13:36:26.410Z,11.40
2023-06-21T13:38:54.407Z,13.30
2023-06-21T13:41:22.261Z,13.10
2023-06-21T13:43:50.404Z,12.30
2023-06-21T13:46:18.252Z,10.20
2023-06-21T13:48:46.332Z,12.80
2023-06-21T13:51:14.261Z,13.20
2023-06-21T13:53:45.280Z,15.60
2023-06-21T13:56:13.347Z,13.80
2023-06-21T13:58:41.181Z,14.70
2023-06-21T14:01:09.088Z,8.30
2023-06-21T14:03:37.259Z,10.30
2023-06-21T14:06:07.886Z,7.70
2023-06-21T14:08:35.762Z,15.60
2023-06-21T14:11:03.628Z,11.30
2023-06-21T14:13:31.574Z,11.10
2023-06-21T14:15:59.363Z,10.50
2023-06-21T14:18:37.691Z,8.30
2023-06-21T14:21:14.943Z,13.90
2023-06-21T14:23:43.170Z,11.90
2023-06-21T14:26:11.078Z,12.40
2023-06-21T14:28:40.977Z,10.80
2023-06-21T14:31:09.003Z,10.10
2023-06-21T14:33:37.218Z,7.80
2023-06-21T14:36:05.329Z,10.30
2023-06-21T14:38:34.157Z,8.90
2023-06-21T14:41:02.025Z,8.80
2023-06-21T14:43:29.959Z,9.50
2023-06-21T14:45:57.941Z,12.10
2023-06-21T14:48:25.818Z,8.90
2023-06-21T14:50:53.779Z,9.00
2023-06-21T14:53:21.789Z,9.70
2023-06-21T14:55:49.628Z,8.90
2023-06-21T14:58:17.556Z,9.10
2023-06-21T15:00:45.552Z,12.70
2023-06-21T15:03:13.571Z,12.60
2023-06-21T15:05:49.907Z,9.10
2023-06-21T15:08:24.679Z,15.90
2023-06-21T15:10:54.396Z,13.10
2023-06-21T15:13:22.226Z,8.70
2023-06-21T15:15:50.109Z,10.30
2023-06-21T15:18:18.852Z,13.10
2023-06-21T15:20:46.819Z,8.10
2023-06-21T15:23:14.700Z,9.40
2023-06-21T15:25:45.619Z,14.60
2023-06-21T15:28:13.456Z,9.80
2023-06-21T15:30:41.479Z,10.40
2023-06-21T15:33:10.363Z,29.80
2023-06-21T15:35:41.175Z,15.90
2023-06-21T15:38:09.140Z,7.60
2023-06-21T15:40:38.310Z,11.20
2023-06-21T15:43:06.392Z,10.00
2023-06-21T15:45:34.773Z,9.70
2023-06-21T15:48:03.143Z,9.10
2023-06-21T15:50:33.450Z,7.40
2023-06-21T15:53:01.435Z,11.10
2023-06-21T15:55:29.537Z,11.70
2023-06-21T15:57:59.931Z,11.80
2023-06-21T16:00:28.233Z,9.60
2023-06-21T16:02:56.662Z,12.80
2023-06-21T16:05:24.939Z,12.70
2023-06-21T16:07:52.894Z,8.70
2023-06-21T16:10:21.081Z,11.70
2023-06-21T16:12:57.074Z,12.10
2023-06-21T16:15:27.391Z,7.10
2023-06-21T16:17:55.817Z,7.50
2023-06-21T16:20:23.988Z,7.40
2023-06-21T16:22:51.931Z,10.10
2023-06-21T16:25:20.183Z,9.50
2023-06-21T16:27:48.366Z,6.50
2023-06-21T16:30:18.666Z,8.10
2023-06-21T16:32:46.710Z,11.40
2023-06-21T16:35:14.658Z,9.80
2023-06-21T16:37:42.563Z,13.70
2023-06-21T16:40:10.654Z,9.80
2023-06-21T16:42:38.462Z,8.20
2023-06-21T16:45:06.800Z,16.50
2023-06-21T16:47:34.831Z,6.80
2023-06-21T16:50:03.112Z,8.40
2023-06-21T16:52:31.133Z,14.30
2023-06-21T16:54:58.873Z,8.40
2023-06-21T16:57:26.673Z,6.70
2023-06-21T16:59:54.426Z,7.70
2023-06-21T17:02:22.544Z,9.10
2023-06-21T17:04:50.539Z,7.50
2023-06-21T17:07:18.385Z,8.90
2023-06-21T17:09:46.415Z,7.90
2023-06-21T17:12:17.133Z,9.80
2023-06-21T17:14:46.443Z,10.60
2023-06-21T17:17:14.237Z,6.70
2023-06-21T17:19:42.181Z,10.10
2023-06-21T17:22:10.511Z,7.90
2023-06-21T17:24:40.346Z,7.20
2023-06-21T17:27:08.617Z,7.70
2023-06-21T17:29:36.754Z,7.60
2023-06-21T17:32:04.742Z,8.10
2023-06-21T17:34:32.564Z,7.80
2023-06-21T17:37:00.333Z,8.50
2023-06-21T17:39:28.184Z,9.30
2023-06-21T17:41:56.069Z,9.90
2023-06-21T17:44:23.980Z,7.80
2023-06-21T17:46:51.770Z,7.10
2023-06-21T17:49:19.576Z,8.60
2023-06-21T17:51:47.533Z,7.70
2023-06-21T17:54:15.341Z,10.80
2023-06-21T17:56:43.212Z,8.40
2023-06-21T17:59:11.123Z,7.20
2023-06-21T18:01:39.022Z,10.30
2023-06-21T18:04:06.924Z,9.40
2023-06-21T18:06:34.931Z,8.90
2023-06-21T18:09:02.791Z,10.80
2023-06-21T18:11:31.227Z,9.20
2023-06-21T18:14:00.433Z,11.80
2023-06-21T18:16:30.722Z,12.30
2023-06-21T18:18:58.912Z,9.30
2023-06-21T18:21:26.684Z,11.20
2023-06-21T18:23:54.400Z,9.10
2023-06-21T18:26:22.405Z,7.20
2023-06-21T18:28:50.349Z,7.80
2023-06-21T18:31:18.138Z,10.00
2023-06-21T18:33:46.141Z,9.80
2023-06-21T18:36:17.160Z,10.70
2023-06-21T18:38:45.809Z,10.00
2023-06-21T18:41:13.732Z,9.10
2023-06-21T18:43:41.569Z,16.40
2023-06-21T18:46:09.506Z,10.80
2023-06-21T18:48:37.379Z,11.80
2023-06-21T18:51:05.256Z,13.60
2023-06-21T18:53:33.122Z,16.50
2023-06-21T18:56:00.864Z,13.20
2023-06-21T18:58:29.173Z,13.30
2023-06-21T19:00:57.062Z,12.60
2023-06-21T19:03:25.059Z,13.90
2023-06-21T19:05:54.937Z,10.70
2023-06-21T19:08:22.975Z,11.50
2023-06-21T19:10:50.970Z,10.40
2023-06-21T19:13:18.941Z,12.90
2023-06-21T19:15:46.780Z,10.10
2023-06-21T19:18:15.039Z,9.80
2023-06-21T19:20:42.906Z,10.90
2023-06-21T19:23:10.667Z,17.90
2023-06-21T19:25:38.744Z,14.30
2023-06-21T19:28:06.963Z,10.20
2023-06-21T19:30:39.127Z,11.10
2023-06-21T19:33:07.122Z,10.50
2023-06-21T19:35:35.021Z,14.80
2023-06-21T19:38:03.000Z,14.50
2023-06-21T19:40:31.306Z,11.00
2023-06-21T19:42:59.483Z,12.00
2023-06-21T19:45:27.257Z,18.70
2023-06-21T19:47:55.366Z,15.10
2023-06-21T19:50:23.308Z,11.60
2023-06-21T19:52:51.276Z,15.80
2023-06-21T19:55:19.151Z,16.10
2023-06-21T19:57:47.319Z,16.90
2023-06-21T20:00:16.479Z,16.40
2023-06-21T20:02:44.726Z,21.10
2023-06-21T20:05:15.922Z,17.50
2023-06-21T20:07:43.845Z,14.30
2023-06-21T20:10:12.015Z,16.40
2023-06-21T20:12:40.083Z,14.90
2023-06-21T20:15:08.368Z,19.00
2023-06-21T20:17:38.170Z,16.20
2023-06-21T20:20:09.657Z,15.10
2023-06-21T20:22:37.489Z,20.40
2023-06-21T20:25:05.518Z,22.90
2023-06-21T20:27:33.355Z,17.00
2023-06-21T20:30:01.180Z,20.10
2023-06-21T20:32:29.294Z,20.70
2023-06-21T20:34:57.134Z,18.70
2023-06-21T20:37:24.942Z,21.70
2023-06-21T20:39:54.704Z,17.70
2023-06-21T20:42:30.361Z,17.50
2023-06-21T20:44:58.878Z,15.20
2023-06-21T20:47:26.696Z,16.30
2023-06-21T20:49:54.844Z,16.70
2023-06-21T20:52:22.873Z,16.90
2023-06-21T20:54:50.947Z,14.70
2023-06-21T20:57:18.778Z,14.10
2023-06-21T20:59:46.600Z,16.60
2023-06-21T21:02:14.480Z,13.90
2023-06-21T21:04:42.383Z,13.60
2023-06-21T21:07:10.219Z,13.50
2023-06-21T21:09:37.986Z,15.30
2023-06-21T21:12:05.978Z,14.70
2023-06-21T21:14:33.716Z,14.70
2023-06-21T21:17:01.499Z,14.20
2023-06-21T21:19:29.232Z,14.60
2023-06-21T21:21:57.656Z,14.40
2023-06-21T21:24:25.486Z,14.20
2023-06-21T21:26:53.341Z,14.10
2023-06-21T21:29:21.161Z,11.80
2023-06-21T21:31:53.607Z,12.30
2023-06-21T21:34:21.520Z,11.60
2023-06-21T21:36:49.486Z,14.90
2023-06-21T21:39:17.339Z,11.90
2023-06-21T21:41:45.144Z,15.00
2023-06-21T21:44:12.979Z,11.50
2023-06-21T21:46:40.915Z,10.90
2023-06-21T21:49:08.737Z,10.70
2023-06-21T21:51:36.533Z,11.70
2023-06-21T21:54:04.482Z,10.10
2023-06-21T21:56:32.255Z,13.20
2023-06-21T21:59:00.023Z,12.80
2023-06-21T22:01:27.999Z,11.70
2023-06-21T22:03:55.911Z,10.70
2023-06-21T22:06:39.031Z,11.30
2023-06-21T22:09:07.097Z,13.90
2023-06-21T22:11:35.530Z,12.10
2023-06-21T22:14:03.752Z,14.70
2023-06-21T22:16:34.717Z,13.80
2023-06-21T22:19:03.057Z,11.20
2023-06-21T22:21:34.324Z,14.00
2023-06-21T22:24:02.427Z,12.20
2023-06-21T22:26:30.301Z,10.80
2023-06-21T22:28:58.180Z,11.40
2023-06-21T22:31:26.249Z,9.20
2023-06-21T22:33:54.190Z,12.20
2023-06-21T22:36:23.105Z,13.30
2023-06-21T22:38:51.729Z,14.90
2023-06-21T22:41:19.719Z,10.40
2023-06-21T22:43:48.155Z,10.20
2023-06-21T22:46:16.085Z,13.60
2023-06-21T22:48:43.988Z,14.90
2023-06-21T22:51:12.197Z,9.20
2023-06-21T22:53:40.005Z,12.10
2023-06-21T22:56:07.783Z,9.40
2023-06-21T22:58:35.589Z,12.50
2023-06-21T23:01:03.954Z,10.80
2023-06-21T23:03:32.003Z,12.30
2023-06-21T23:06:00.000Z,14.80
2023-06-21T23:08:27.824Z,11.80
2023-06-21T23:10:59.115Z,13.50
2023-06-21T23:13:27.703Z,11.20
2023-06-21T23:15:55.781Z,14.00
2023-06-21T23:18:32.041Z,12.20
2023-06-21T23:21:01.551Z,11.20
2023-06-21T23:23:34.746Z,11.20
2023-06-21T23:26:03.386Z,13.80
2023-06-21T23:28:32.944Z,11.00
2023-06-21T23:31:07.658Z,12.00
2023-06-21T23:33:35.940Z,13.70
2023-06-21T23:36:04.663Z,11.60
2023-06-21T23:38:36.210Z,11.10
2023-06-21T23:41:04.016Z,10.60
2023-06-21T23:43:34.971Z,11.60
2023-06-21T23:46:03.881Z,12.00
2023-06-21T23:48:38.736Z,13.90
2023-06-21T23:51:08.301Z,12.80
2023-06-21T23:53:36.808Z,12.50
2023-06-21T23:56:04.844Z,15.20
2023-06-21T23:58:32.857Z,13.60
